createdAt,value
2019-03-01T00:01:39.339Z,19.50
2019-03-01T00:04:12.162Z,17.80
2019-03-01T00:06:47.162Z,22.20
2019-03-01T00:09:31.162Z,16.82
2019-03-01T00:15:06.025Z,18.40
2019-03-01T00:17:44.077Z,24.52
2019-03-01T00:20:25.276Z,26.87
2019-03-01T00:23:03.528Z,18.80
2019-03-01T00:25:41.705Z,22.35
2019-03-01T00:28:20.164Z,18.00
2019-03-01T00:31:22.613Z,21.17
2019-03-01T00:34:03.361Z,18.95
2019-03-01T00:36:59.379Z,15.83
2019-03-01T00:39:49.665Z,24.18
2019-03-01T00:42:37.149Z,22.00
2019-03-01T00:45:07.015Z,21.90
2019-03-01T00:47:36.605Z,22.62
2019-03-01T00:50:08.782Z,25.35
2019-03-01T00:52:38.116Z,23.38
2019-03-01T00:55:08.486Z,26.20
2019-03-01T00:57:38.060Z,19.75
2019-03-01T01:00:19.123Z,18.98
2019-03-01T01:02:48.744Z,21.07
2019-03-01T01:05:18.344Z,24.63
2019-03-01T01:07:47.672Z,25.52
2019-03-01T01:10:17.031Z,21.37
2019-03-01T01:12:46.366Z,24.67
2019-03-01T01:15:15.994Z,19.05
2019-03-01T01:17:46.534Z,24.67
2019-03-01T01:20:15.939Z,23.95
2019-03-01T01:22:45.283Z,21.35
2019-03-01T01:25:14.651Z,20.80
2019-03-01T01:27:43.955Z,23.60
2019-03-01T01:30:14.472Z,20.82
2019-03-01T01:32:44.063Z,26.05
2019-03-01T01:35:13.397Z,25.72
2019-03-01T01:37:42.734Z,20.90
2019-03-01T01:40:12.083Z,25.75
2019-03-01T01:42:41.679Z,24.00
2019-03-01T01:45:11.617Z,22.00
2019-03-01T01:47:40.969Z,22.55
2019-03-01T01:50:10.613Z,23.47
2019-03-01T01:52:39.954Z,22.02
2019-03-01T01:55:09.380Z,20.50
2019-03-01T01:57:38.965Z,21.37
2019-03-01T02:00:11.523Z,24.25
2019-03-01T02:02:41.036Z,20.23
2019-03-01T02:05:10.457Z,19.70
2019-03-01T02:07:39.787Z,19.52
2019-03-01T02:10:10.459Z,26.17
2019-03-01T02:12:39.791Z,26.68
2019-03-01T02:15:12.712Z,26.25
2019-03-01T02:17:42.310Z,28.57
2019-03-01T02:20:12.979Z,23.18
2019-03-01T02:22:42.313Z,23.05
2019-03-01T02:25:12.485Z,23.73
2019-03-01T02:27:41.851Z,26.85
2019-03-01T02:30:14.089Z,23.83
2019-03-01T02:32:44.794Z,21.30
2019-03-01T02:35:15.859Z,24.43
2019-03-01T02:37:45.203Z,22.87
2019-03-01T02:40:16.185Z,21.93
2019-03-01T02:42:45.657Z,25.52
2019-03-01T02:45:17.141Z,29.35
2019-03-01T02:47:46.486Z,25.15
2019-03-01T02:50:18.386Z,22.10
2019-03-01T02:52:47.828Z,24.05
2019-03-01T02:55:19.565Z,18.77
2019-03-01T02:57:48.906Z,23.38
2019-03-01T03:00:23.569Z,21.80
2019-03-01T03:02:52.913Z,20.17
2019-03-01T03:05:22.240Z,22.85
2019-03-01T03:07:56.150Z,16.57
2019-03-01T03:10:25.479Z,20.85
2019-03-01T03:13:00.214Z,23.38
2019-03-01T03:15:39.847Z,23.07
2019-03-01T03:18:09.588Z,24.70
2019-03-01T03:20:38.919Z,21.95
2019-03-01T03:23:08.263Z,21.05
2019-03-01T03:25:37.901Z,24.55
2019-03-01T03:28:07.233Z,20.02
2019-03-01T03:30:36.594Z,19.32
2019-03-01T03:33:05.919Z,24.50
2019-03-01T03:35:35.234Z,21.82
2019-03-01T03:38:04.569Z,24.92
2019-03-01T03:40:33.902Z,22.80
2019-03-01T03:43:03.241Z,22.98
2019-03-01T03:45:32.567Z,23.20
2019-03-01T03:48:01.907Z,21.17
2019-03-01T03:50:31.235Z,22.62
2019-03-01T03:53:00.567Z,23.87
2019-03-01T03:55:29.901Z,20.50
2019-03-01T03:57:59.293Z,20.88
2019-03-01T04:00:28.624Z,22.93
2019-03-01T04:02:57.952Z,22.60
2019-03-01T04:05:27.380Z,25.88
2019-03-01T04:07:57.054Z,21.35
2019-03-01T04:10:26.389Z,21.85
2019-03-01T04:12:55.716Z,23.80
2019-03-01T04:15:25.056Z,24.95
2019-03-01T04:17:54.393Z,20.72
2019-03-01T04:20:23.735Z,26.93
2019-03-01T04:22:53.068Z,24.50
2019-03-01T04:25:22.409Z,22.95
2019-03-01T04:27:53.466Z,23.35
2019-03-01T04:30:22.931Z,22.15
2019-03-01T04:32:52.260Z,18.82
2019-03-01T04:35:21.671Z,25.12
2019-03-01T04:37:51.001Z,23.25
2019-03-01T04:40:20.349Z,27.67
2019-03-01T04:42:49.674Z,22.77
2019-03-01T04:45:19.192Z,23.85
2019-03-01T04:47:48.800Z,23.05
2019-03-01T04:50:18.146Z,23.50
2019-03-01T04:52:47.471Z,26.23
2019-03-01T04:55:25.438Z,23.40
2019-03-01T04:57:54.767Z,24.32
2019-03-01T05:00:25.250Z,26.82
2019-03-01T05:02:54.880Z,27.70
2019-03-01T05:05:24.483Z,24.52
2019-03-01T05:07:54.860Z,24.05
2019-03-01T05:10:24.522Z,25.35
2019-03-01T05:12:54.833Z,29.18
2019-03-01T05:15:24.863Z,24.57
2019-03-01T05:17:54.169Z,30.48
2019-03-01T05:20:23.495Z,29.85
2019-03-01T05:22:52.837Z,30.65
2019-03-01T05:25:22.166Z,29.95
2019-03-01T05:27:51.784Z,31.35
2019-03-01T05:30:21.190Z,29.45
2019-03-01T05:32:50.583Z,32.08
2019-03-01T05:35:19.910Z,32.78
2019-03-01T05:37:49.272Z,31.23
2019-03-01T05:40:18.579Z,36.75
2019-03-01T05:42:47.916Z,28.38
2019-03-01T05:45:29.059Z,35.10
2019-03-01T05:47:59.466Z,33.67
2019-03-01T05:50:28.794Z,30.37
2019-03-01T05:52:58.130Z,32.88
2019-03-01T05:55:27.502Z,34.03
2019-03-01T05:58:28.388Z,36.03
2019-03-01T06:01:00.756Z,42.35
2019-03-01T06:03:53.969Z,40.52
2019-03-01T06:06:29.329Z,38.63
2019-03-01T06:09:16.305Z,41.10
2019-03-01T06:11:48.694Z,45.08
2019-03-01T06:14:27.236Z,40.85
2019-03-01T06:17:14.579Z,42.53
2019-03-01T06:19:50.206Z,48.20
2019-03-01T06:22:49.743Z,55.35
2019-03-01T06:25:33.403Z,65.57
2019-03-01T06:28:05.789Z,68.17
2019-03-01T06:30:52.121Z,63.05
2019-03-01T06:33:33.510Z,70.95
2019-03-01T06:36:11.914Z,90.77
2019-03-01T06:38:57.778Z,94.40
2019-03-01T06:41:34.815Z,103.47
2019-03-01T06:44:23.712Z,104.05
2019-03-01T06:47:17.257Z,110.97
2019-03-01T06:49:51.141Z,117.55
2019-03-01T06:52:22.121Z,136.30
2019-03-01T06:54:51.468Z,133.72
2019-03-01T06:57:20.807Z,137.80
2019-03-01T06:59:50.148Z,143.70
2019-03-01T07:02:24.651Z,130.63
2019-03-01T07:04:53.993Z,142.28
2019-03-01T07:07:23.574Z,145.85
2019-03-01T07:09:53.140Z,148.80
2019-03-01T07:12:22.482Z,150.60
2019-03-01T07:14:51.830Z,153.40
2019-03-01T07:17:21.171Z,138.75
2019-03-01T07:19:50.853Z,152.72
2019-03-01T07:22:20.187Z,146.72
2019-03-01T07:24:49.527Z,159.95
2019-03-01T07:27:18.922Z,150.18
2019-03-01T07:29:48.268Z,159.85
2019-03-01T07:32:17.613Z,159.10
2019-03-01T07:34:46.951Z,167.82
2019-03-01T07:37:16.296Z,166.20
2019-03-01T07:39:45.632Z,160.55
2019-03-01T07:42:15.012Z,163.60
2019-03-01T07:44:44.320Z,173.78
2019-03-01T07:47:13.656Z,172.62
2019-03-01T07:49:42.997Z,163.32
2019-03-01T07:52:12.332Z,175.62
2019-03-01T07:54:41.677Z,172.28
2019-03-01T07:57:14.482Z,154.97
2019-03-01T07:59:42.342Z,159.90
2019-03-01T08:02:12.741Z,146.43
2019-03-01T08:04:42.085Z,147.17
2019-03-01T08:07:12.394Z,144.72
2019-03-01T08:09:44.738Z,146.18
2019-03-01T08:12:12.769Z,150.45
2019-03-01T08:14:42.119Z,148.13
2019-03-01T08:17:11.458Z,133.70
2019-03-01T08:19:40.848Z,141.47
2019-03-01T08:22:10.182Z,126.70
2019-03-01T08:24:42.849Z,130.45
2019-03-01T08:27:11.151Z,126.47
2019-03-01T08:29:41.942Z,133.43
2019-03-01T08:32:11.575Z,124.92
2019-03-01T08:34:41.322Z,127.80
2019-03-01T08:37:10.660Z,127.55
2019-03-01T08:39:40.778Z,120.25
2019-03-01T08:42:10.128Z,129.47
2019-03-01T08:44:39.759Z,131.78
2019-03-01T08:47:09.099Z,137.35
2019-03-01T08:49:38.441Z,136.77
2019-03-01T08:52:08.015Z,140.52
2019-03-01T08:54:37.420Z,146.50
2019-03-01T08:57:06.759Z,138.47
2019-03-01T08:59:36.104Z,145.90
2019-03-01T09:02:05.481Z,136.50
2019-03-01T09:04:37.978Z,128.20
2019-03-01T09:07:06.827Z,138.25
2019-03-01T09:09:36.409Z,129.90
2019-03-01T09:12:05.989Z,146.65
2019-03-01T09:14:35.323Z,148.57
2019-03-01T09:17:04.916Z,151.37
2019-03-01T09:19:35.270Z,140.97
2019-03-01T09:22:05.618Z,150.47
2019-03-01T09:24:34.965Z,161.30
2019-03-01T09:27:04.370Z,142.47
2019-03-01T09:29:41.178Z,151.87
2019-03-01T09:32:04.807Z,163.37
2019-03-01T09:34:34.140Z,171.60
2019-03-01T09:37:03.491Z,172.22
2019-03-01T09:39:32.853Z,174.30
2019-03-01T09:42:04.408Z,160.55
2019-03-01T09:44:34.565Z,161.30
2019-03-01T09:47:04.300Z,153.35
2019-03-01T09:49:33.711Z,169.22
2019-03-01T09:52:03.023Z,167.25
2019-03-01T09:54:32.597Z,177.60
2019-03-01T09:57:01.971Z,163.62
2019-03-01T09:59:31.304Z,171.02
2019-03-01T10:02:00.642Z,180.03
2019-03-01T10:04:30.207Z,168.22
2019-03-01T10:07:00.520Z,161.68
2019-03-01T10:09:29.856Z,166.70
2019-03-01T10:11:59.192Z,176.47
2019-03-01T10:14:28.543Z,161.75
2019-03-01T10:16:57.885Z,163.57
2019-03-01T10:19:27.245Z,164.37
2019-03-01T10:21:56.587Z,155.70
2019-03-01T10:24:25.930Z,153.70
2019-03-01T10:26:55.268Z,164.55
2019-03-01T10:29:24.608Z,164.40
2019-03-01T10:31:53.939Z,156.87
2019-03-01T10:34:23.512Z,158.80
2019-03-01T10:36:55.443Z,155.12
2019-03-01T10:39:25.021Z,164.03
2019-03-01T10:41:54.353Z,148.60
2019-03-01T10:44:24.668Z,144.62
2019-03-01T10:46:54.025Z,151.20
2019-03-01T10:49:23.588Z,150.93
2019-03-01T10:51:52.978Z,165.00
2019-03-01T10:54:22.556Z,150.03
2019-03-01T10:56:51.891Z,165.43
2019-03-01T10:59:21.462Z,169.82
2019-03-01T11:01:50.799Z,170.05
2019-03-01T11:04:20.142Z,161.90
2019-03-01T11:06:49.476Z,167.60
2019-03-01T11:09:18.816Z,161.47
2019-03-01T11:11:48.146Z,162.05
2019-03-01T11:14:17.529Z,145.02
2019-03-01T11:16:46.930Z,159.12
2019-03-01T11:19:16.270Z,155.60
2019-03-01T11:21:45.609Z,141.15
2019-03-01T11:24:14.947Z,156.93
2019-03-01T11:26:44.327Z,147.70
2019-03-01T11:29:13.672Z,139.97
2019-03-01T11:31:43.006Z,124.30
2019-03-01T11:34:12.593Z,117.50
2019-03-01T11:36:41.926Z,116.17
2019-03-01T11:39:11.938Z,96.12
2019-03-01T11:41:41.262Z,65.32
2019-03-01T11:44:10.598Z,57.43
2019-03-01T11:46:39.925Z,49.23
2019-03-01T11:49:09.263Z,48.02
2019-03-01T11:51:38.596Z,42.80
2019-03-01T11:54:08.008Z,45.28
2019-03-01T11:56:37.349Z,44.65
2019-03-01T11:59:06.955Z,47.30
2019-03-01T12:01:36.527Z,42.55
2019-03-01T12:04:06.101Z,48.02
2019-03-01T12:06:35.444Z,49.48
2019-03-01T12:09:05.841Z,50.58
2019-03-01T12:11:35.537Z,54.18
2019-03-01T12:14:04.867Z,50.05
2019-03-01T12:16:34.201Z,51.70
2019-03-01T12:19:03.532Z,52.45
2019-03-01T12:21:33.099Z,49.75
2019-03-01T12:24:02.431Z,59.75
2019-03-01T12:26:31.762Z,54.70
2019-03-01T12:29:01.090Z,54.38
2019-03-01T12:31:30.421Z,64.00
2019-03-01T12:33:59.752Z,59.13
2019-03-01T12:36:29.335Z,51.02
2019-03-01T12:38:58.671Z,52.50
2019-03-01T12:41:28.006Z,54.90
2019-03-01T12:43:57.337Z,49.15
2019-03-01T12:46:26.662Z,46.13
2019-03-01T12:48:56.234Z,45.40
2019-03-01T12:51:25.799Z,41.70
2019-03-01T12:53:55.432Z,50.35
2019-03-01T12:56:24.762Z,34.85
2019-03-01T12:58:54.090Z,32.90
2019-03-01T13:01:23.431Z,30.68
2019-03-01T13:03:52.994Z,29.37
2019-03-01T13:06:22.572Z,27.58
2019-03-01T13:08:52.428Z,29.45
2019-03-01T13:11:21.767Z,34.80
2019-03-01T13:13:51.338Z,32.13
2019-03-01T13:16:23.482Z,30.55
2019-03-01T13:18:52.415Z,35.90
2019-03-01T13:21:22.015Z,40.23
2019-03-01T13:23:51.355Z,33.92
2019-03-01T13:26:20.915Z,30.15
2019-03-01T13:28:50.243Z,29.57
2019-03-01T13:31:19.580Z,32.35
2019-03-01T13:33:48.904Z,32.20
2019-03-01T13:36:18.237Z,28.65
2019-03-01T13:38:47.588Z,24.95
2019-03-01T13:41:16.995Z,33.53
2019-03-01T13:43:46.329Z,25.90
2019-03-01T13:46:15.659Z,28.73
2019-03-01T13:48:44.992Z,25.27
2019-03-01T13:51:17.301Z,23.45
2019-03-01T13:53:48.941Z,18.85
2019-03-01T13:56:16.708Z,24.05
2019-03-01T13:58:46.038Z,25.75
2019-03-01T14:01:15.603Z,29.70
2019-03-01T14:03:44.962Z,29.80
2019-03-01T14:06:15.863Z,27.20
2019-03-01T14:08:45.389Z,29.50
2019-03-01T14:11:15.243Z,29.80
2019-03-01T14:13:47.665Z,33.10
2019-03-01T14:16:17.123Z,25.72
2019-03-01T14:18:48.844Z,24.70
2019-03-01T14:21:18.177Z,28.92
2019-03-01T14:23:47.522Z,28.95
2019-03-01T14:26:18.412Z,28.45
2019-03-01T14:28:48.895Z,26.05
2019-03-01T14:31:18.222Z,29.57
2019-03-01T14:33:47.816Z,35.55
2019-03-01T14:36:17.137Z,27.32
2019-03-01T14:38:46.473Z,31.73
2019-03-01T14:41:16.034Z,32.78
2019-03-01T14:43:46.333Z,28.42
2019-03-01T14:46:17.561Z,26.73
2019-03-01T14:48:47.767Z,29.00
2019-03-01T14:51:17.103Z,33.38
2019-03-01T14:53:46.442Z,27.32
2019-03-01T14:56:25.466Z,27.77
2019-03-01T14:59:00.416Z,35.43
2019-03-01T15:01:35.324Z,31.25
2019-03-01T15:04:04.891Z,29.77
2019-03-01T15:06:34.449Z,31.90
2019-03-01T15:09:04.521Z,38.00
2019-03-01T15:11:35.693Z,34.85
2019-03-01T15:14:12.327Z,29.37
2019-03-01T15:16:39.255Z,31.33
2019-03-01T15:19:08.061Z,30.17
2019-03-01T15:21:38.416Z,32.98
2019-03-01T15:24:07.867Z,31.48
2019-03-01T15:26:38.160Z,33.63
2019-03-01T15:29:08.497Z,39.67
2019-03-01T15:31:38.024Z,30.02
2019-03-01T15:34:07.362Z,32.35
2019-03-01T15:36:36.698Z,31.50
2019-03-01T15:39:08.378Z,36.75
2019-03-01T15:41:39.146Z,31.70
2019-03-01T15:44:08.936Z,31.75
2019-03-01T15:46:38.334Z,32.48
2019-03-01T15:49:07.742Z,30.88
2019-03-01T15:51:38.123Z,29.55
2019-03-01T15:54:08.180Z,34.27
2019-03-01T15:56:39.557Z,27.60
2019-03-01T15:59:09.696Z,29.65
2019-03-01T16:01:39.684Z,26.07
2019-03-01T16:04:09.060Z,21.90
2019-03-01T16:06:38.398Z,23.90
2019-03-01T16:09:10.949Z,26.87
2019-03-01T16:11:41.249Z,19.07
2019-03-01T16:14:10.584Z,22.45
2019-03-01T16:16:39.993Z,20.52
2019-03-01T16:19:11.098Z,19.52
2019-03-01T16:21:43.081Z,22.45
2019-03-01T16:24:11.949Z,21.97
2019-03-01T16:26:41.288Z,24.77
2019-03-01T16:29:10.600Z,15.15
2019-03-01T16:31:39.930Z,20.15
2019-03-01T16:34:09.431Z,18.20
2019-03-01T16:36:40.023Z,18.32
2019-03-01T16:39:12.085Z,17.67
2019-03-01T16:41:42.928Z,22.48
2019-03-01T16:44:13.786Z,15.50
2019-03-01T16:46:44.083Z,16.70
2019-03-01T16:49:13.410Z,16.30
2019-03-01T16:51:42.738Z,13.38
2019-03-01T16:54:16.297Z,11.43
2019-03-01T16:56:44.270Z,14.30
2019-03-01T16:59:13.596Z,13.62
2019-03-01T17:01:42.933Z,16.48
2019-03-01T17:04:12.469Z,12.73
2019-03-01T17:06:41.802Z,13.85
2019-03-01T17:09:11.804Z,11.70
2019-03-01T17:11:42.484Z,8.85
2019-03-01T17:14:11.978Z,15.38
2019-03-01T17:16:41.315Z,10.28
2019-03-01T17:19:10.642Z,18.17
2019-03-01T17:21:39.969Z,15.48
2019-03-01T17:24:12.314Z,11.40
2019-03-01T17:26:40.328Z,12.80
2019-03-01T17:29:09.691Z,13.13
2019-03-01T17:31:39.273Z,13.90
2019-03-01T17:34:08.635Z,10.23
2019-03-01T17:36:37.922Z,11.18
2019-03-01T17:39:07.250Z,12.93
2019-03-01T17:41:38.447Z,13.35
2019-03-01T17:44:08.619Z,12.60
2019-03-01T17:46:38.878Z,12.13
2019-03-01T17:49:08.191Z,12.68
2019-03-01T17:51:37.522Z,17.45
2019-03-01T17:54:07.769Z,13.55
2019-03-01T17:56:38.030Z,12.03
2019-03-01T17:59:08.324Z,17.17
2019-03-01T18:01:39.001Z,20.62
2019-03-01T18:04:09.513Z,12.40
2019-03-01T18:06:38.841Z,14.98
2019-03-01T18:09:08.539Z,11.80
2019-03-01T18:11:40.733Z,15.80
2019-03-01T18:14:09.165Z,13.53
2019-03-01T18:16:38.507Z,12.88
2019-03-01T18:19:08.921Z,11.28
2019-03-01T18:21:38.277Z,13.10
2019-03-01T18:24:07.597Z,9.93
2019-03-01T18:26:39.825Z,10.53
2019-03-01T18:29:08.385Z,11.30
2019-03-01T18:31:38.113Z,12.98
2019-03-01T18:34:07.443Z,14.68
2019-03-01T18:36:36.792Z,14.18
2019-03-01T18:39:09.165Z,13.93
2019-03-01T18:41:39.021Z,13.03
2019-03-01T18:44:08.482Z,12.75
2019-03-01T18:46:37.874Z,14.78
2019-03-01T18:49:07.270Z,15.68
2019-03-01T18:51:42.242Z,15.15
2019-03-01T18:54:08.587Z,17.17
2019-03-01T18:56:37.910Z,14.70
2019-03-01T18:59:07.233Z,12.23
2019-03-01T19:01:36.553Z,13.53
2019-03-01T19:04:05.939Z,17.17
2019-03-01T19:06:35.267Z,13.70
2019-03-01T19:09:06.893Z,10.78
2019-03-01T19:11:38.016Z,11.43
2019-03-01T19:14:07.612Z,17.23
2019-03-01T19:16:36.941Z,19.00
2019-03-01T19:19:06.274Z,19.55
2019-03-01T19:21:35.600Z,17.27
2019-03-01T19:24:08.043Z,17.73
2019-03-01T19:26:36.536Z,19.60
2019-03-01T19:29:06.585Z,19.60
2019-03-01T19:31:37.272Z,14.40
2019-03-01T19:34:06.612Z,18.30
2019-03-01T19:36:38.955Z,20.88
2019-03-01T19:39:10.028Z,14.38
2019-03-01T19:41:39.830Z,13.70
2019-03-01T19:44:09.186Z,17.27
2019-03-01T19:46:38.530Z,17.32
2019-03-01T19:49:09.531Z,19.98
2019-03-01T19:51:38.978Z,17.10
2019-03-01T19:54:08.468Z,23.65
2019-03-01T19:56:37.830Z,21.10
2019-03-01T19:59:07.190Z,19.85
2019-03-01T20:01:36.519Z,19.35
2019-03-01T20:04:05.881Z,24.32
2019-03-01T20:06:35.206Z,18.05
2019-03-01T20:09:05.436Z,17.98
2019-03-01T20:11:36.006Z,18.10
2019-03-01T20:14:05.418Z,16.48
2019-03-01T20:16:34.753Z,19.17
2019-03-01T20:19:04.081Z,18.40
2019-03-01T20:21:33.420Z,20.72
2019-03-01T20:24:05.255Z,20.40
2019-03-01T20:26:33.808Z,17.45
2019-03-01T20:29:03.140Z,15.00
2019-03-01T20:31:32.486Z,14.78
2019-03-01T20:34:02.746Z,17.25
2019-03-01T20:36:32.214Z,16.57
2019-03-01T20:39:01.548Z,15.50
2019-03-01T20:41:35.943Z,16.82
2019-03-01T20:44:04.428Z,14.75
2019-03-01T20:46:34.728Z,18.15
2019-03-01T20:49:04.739Z,14.73
2019-03-01T20:51:34.064Z,18.57
2019-03-01T20:54:03.394Z,18.48
2019-03-01T20:56:32.735Z,17.70
2019-03-01T20:59:02.065Z,17.73
2019-03-01T21:01:33.732Z,21.77
2019-03-01T21:04:04.830Z,20.60
2019-03-01T21:06:34.078Z,18.30
2019-03-01T21:09:06.960Z,13.62
2019-03-01T21:11:37.981Z,14.50
2019-03-01T21:14:07.312Z,12.05
2019-03-01T21:16:37.653Z,15.20
2019-03-01T21:19:08.767Z,13.05
2019-03-01T21:21:37.981Z,13.72
2019-03-01T21:24:07.304Z,11.63
2019-03-01T21:26:36.638Z,14.53
2019-03-01T21:29:08.861Z,12.73
2019-03-01T21:31:36.990Z,8.63
2019-03-01T21:34:06.325Z,11.40
2019-03-01T21:36:36.041Z,10.48
2019-03-01T21:39:06.041Z,11.05
2019-03-01T21:41:36.074Z,14.85
2019-03-01T21:44:10.132Z,9.00
2019-03-01T21:46:36.520Z,12.82
2019-03-01T21:49:05.849Z,11.10
2019-03-01T21:51:35.167Z,9.58
2019-03-01T21:54:04.632Z,14.95
2019-03-01T21:56:34.175Z,9.88
2019-03-01T21:59:03.500Z,15.53
2019-03-01T22:01:32.840Z,9.90
2019-03-01T22:04:03.796Z,10.08
2019-03-01T22:06:33.605Z,9.30
2019-03-01T22:09:06.036Z,11.85
2019-03-01T22:11:37.163Z,8.83
2019-03-01T22:14:07.650Z,9.23
2019-03-01T22:16:39.419Z,8.43
2019-03-01T22:19:08.756Z,10.28
2019-03-01T22:21:38.078Z,9.95
2019-03-01T22:24:07.406Z,8.55
2019-03-01T22:26:36.967Z,10.63
2019-03-01T22:29:08.805Z,12.70
2019-03-01T22:31:39.599Z,12.80
2019-03-01T22:34:08.794Z,11.53
2019-03-01T22:36:38.118Z,10.00
2019-03-01T22:39:07.513Z,13.95
2019-03-01T22:41:39.360Z,11.80
2019-03-01T22:44:09.031Z,10.72
2019-03-01T22:46:38.361Z,11.95
2019-03-01T22:49:07.684Z,12.05
2019-03-01T22:51:37.015Z,17.27
2019-03-01T22:54:06.329Z,14.65
2019-03-01T22:56:35.656Z,16.77
2019-03-01T22:59:04.997Z,30.57
2019-03-01T23:01:36.136Z,37.83
2019-03-01T23:04:05.607Z,21.93
2019-03-01T23:06:34.940Z,18.70
2019-03-01T23:09:10.218Z,11.93
2019-03-01T23:11:39.023Z,16.90
2019-03-01T23:14:08.346Z,13.78
2019-03-01T23:16:37.665Z,16.50
2019-03-01T23:19:07.028Z,16.20
2019-03-01T23:21:36.912Z,15.32
2019-03-01T23:24:06.265Z,15.68
2019-03-01T23:26:35.643Z,20.43
2019-03-01T23:29:04.968Z,17.45
2019-03-01T23:31:35.679Z,17.35
2019-03-01T23:34:07.084Z,18.00
2019-03-01T23:36:36.416Z,20.60
2019-03-01T23:39:06.580Z,20.48
2019-03-01T23:41:37.531Z,25.00
2019-03-01T23:44:07.819Z,23.10
2019-03-01T23:46:37.179Z,22.02
2019-03-01T23:49:06.749Z,18.52
2019-03-01T23:51:36.121Z,20.80
2019-03-01T23:54:08.675Z,19.27
2019-03-01T23:56:36.488Z,17.60
2019-03-01T23:59:06.788Z,23.65
